sensor_id;sensor_type;location;lat;lon;timestamp;P1;durP1;ratioP1;P2;durP2;ratioP2
29006;SDS011;16104;48.642;9.008;2023-08-06T01:04:57;3.03;;;2.28;;
29006;SDS011;16104;48.642;9.008;2023-08-06T02:01:15;3.25;;;1.75;;
29006;SDS011;16104;48.642;9.008;2023-08-06T02:06:10;2.33;;;1.65;;
29006;SDS011;16104;48.642;9.008;2023-08-06T02:11:06;2.55;;;1.80;;
29006;SDS011;16104;48.642;9.008;2023-08-06T03:01:49;4.40;;;1.90;;
29006;SDS011;16104;48.642;9.008;2023-08-06T03:06:45;2.58;;;1.60;;
29006;SDS011;16104;48.642;9.008;2023-08-06T03:11:40;2.55;;;1.63;;
29006;SDS011;16104;48.642;9.008;2023-08-06T03:16:36;3.50;;;2.00;;
29006;SDS011;16104;48.642;9.008;2023-08-06T03:21:31;3.33;;;1.67;;
29006;SDS011;16104;48.642;9.008;2023-08-06T03:26:27;2.95;;;1.75;;
29006;SDS011;16104;48.642;9.008;2023-08-06T03:31:22;2.10;;;1.60;;
29006;SDS011;16104;48.642;9.008;2023-08-06T03:36:18;1.65;;;1.42;;
29006;SDS011;16104;48.642;9.008;2023-08-06T03:41:13;4.00;;;1.90;;
29006;SDS011;16104;48.642;9.008;2023-08-06T03:46:09;2.65;;;1.77;;
29006;SDS011;16104;48.642;9.008;2023-08-06T03:51:04;4.13;;;1.60;;
29006;SDS011;16104;48.642;9.008;2023-08-06T03:56:00;2.80;;;1.40;;
29006;SDS011;16104;48.642;9.008;2023-08-06T04:01:02;2.45;;;1.52;;
29006;SDS011;16104;48.642;9.008;2023-08-06T04:05:58;2.15;;;1.38;;
29006;SDS011;16104;48.642;9.008;2023-08-06T04:10:54;2.25;;;1.30;;
29006;SDS011;16104;48.642;9.008;2023-08-06T04:15:50;2.65;;;1.50;;
29006;SDS011;16104;48.642;9.008;2023-08-06T04:20:46;1.92;;;1.10;;
29006;SDS011;16104;48.642;9.008;2023-08-06T04:25:44;2.20;;;1.23;;
29006;SDS011;16104;48.642;9.008;2023-08-06T04:30:39;2.05;;;1.17;;
29006;SDS011;16104;48.642;9.008;2023-08-06T04:35:35;3.75;;;1.50;;
29006;SDS011;16104;48.642;9.008;2023-08-06T04:40:32;2.15;;;1.10;;
29006;SDS011;16104;48.642;9.008;2023-08-06T04:45:29;1.60;;;1.00;;
29006;SDS011;16104;48.642;9.008;2023-08-06T04:50:24;3.97;;;1.00;;
29006;SDS011;16104;48.642;9.008;2023-08-06T04:55:20;2.88;;;0.90;;
29006;SDS011;16104;48.642;9.008;2023-08-06T05:00:15;2.65;;;0.95;;
29006;SDS011;16104;48.642;9.008;2023-08-06T05:05:11;1.40;;;0.80;;
29006;SDS011;16104;48.642;9.008;2023-08-06T05:10:06;1.83;;;0.80;;
29006;SDS011;16104;48.642;9.008;2023-08-06T05:15:02;1.20;;;0.90;;
29006;SDS011;16104;48.642;9.008;2023-08-06T05:19:58;1.20;;;1.00;;
29006;SDS011;16104;48.642;9.008;2023-08-06T05:24:54;1.63;;;0.73;;
29006;SDS011;16104;48.642;9.008;2023-08-06T05:29:49;0.80;;;0.70;;
29006;SDS011;16104;48.642;9.008;2023-08-06T05:34:49;1.80;;;0.60;;
29006;SDS011;16104;48.642;9.008;2023-08-06T05:39:45;2.22;;;0.90;;
29006;SDS011;16104;48.642;9.008;2023-08-06T05:44:40;1.77;;;0.50;;
29006;SDS011;16104;48.642;9.008;2023-08-06T05:49:36;1.05;;;0.60;;
29006;SDS011;16104;48.642;9.008;2023-08-06T05:54:31;1.65;;;0.75;;
29006;SDS011;16104;48.642;9.008;2023-08-06T05:59:27;2.22;;;0.60;;
29006;SDS011;16104;48.642;9.008;2023-08-06T06:04:22;2.55;;;0.70;;
29006;SDS011;16104;48.642;9.008;2023-08-06T06:09:18;0.90;;;0.52;;
29006;SDS011;16104;48.642;9.008;2023-08-06T06:14:13;1.15;;;0.70;;
29006;SDS011;16104;48.642;9.008;2023-08-06T06:19:09;1.52;;;0.52;;
29006;SDS011;16104;48.642;9.008;2023-08-06T06:24:05;1.60;;;0.60;;
29006;SDS011;16104;48.642;9.008;2023-08-06T06:29:00;1.65;;;0.65;;
29006;SDS011;16104;48.642;9.008;2023-08-06T06:33:56;1.48;;;0.55;;
29006;SDS011;16104;48.642;9.008;2023-08-06T06:38:51;2.05;;;0.70;;
29006;SDS011;16104;48.642;9.008;2023-08-06T06:43:47;1.63;;;0.70;;
29006;SDS011;16104;48.642;9.008;2023-08-06T06:48:42;0.68;;;0.50;;
29006;SDS011;16104;48.642;9.008;2023-08-06T06:53:38;1.15;;;0.47;;
29006;SDS011;16104;48.642;9.008;2023-08-06T06:58:33;2.22;;;0.70;;
29006;SDS011;16104;48.642;9.008;2023-08-06T07:03:29;2.08;;;0.50;;
29006;SDS011;16104;48.642;9.008;2023-08-06T07:08:24;0.95;;;0.35;;
29006;SDS011;16104;48.642;9.008;2023-08-06T07:13:20;1.17;;;0.40;;
29006;SDS011;16104;48.642;9.008;2023-08-06T07:18:17;0.68;;;0.30;;
29006;SDS011;16104;48.642;9.008;2023-08-06T07:23:13;0.35;;;0.10;;
29006;SDS011;16104;48.642;9.008;2023-08-06T07:28:09;0.10;;;0.10;;
29006;SDS011;16104;48.642;9.008;2023-08-06T07:33:05;0.10;;;0.10;;
29006;SDS011;16104;48.642;9.008;2023-08-06T07:38:01;0.20;;;0.10;;
29006;SDS011;16104;48.642;9.008;2023-08-06T07:42:57;1.63;;;0.08;;
29006;SDS011;16104;48.642;9.008;2023-08-06T07:47:52;0.30;;;0.13;;
29006;SDS011;16104;48.642;9.008;2023-08-06T07:52:48;2.38;;;0.20;;
29006;SDS011;16104;48.642;9.008;2023-08-06T07:57:44;0.20;;;0.20;;
29006;SDS011;16104;48.642;9.008;2023-08-06T08:02:39;0.95;;;0.30;;
29006;SDS011;16104;48.642;9.008;2023-08-06T08:07:35;0.25;;;0.10;;
29006;SDS011;16104;48.642;9.008;2023-08-06T08:12:30;0.00;;;0.00;;
29006;SDS011;16104;48.642;9.008;2023-08-06T08:17:26;0.85;;;0.10;;
29006;SDS011;16104;48.642;9.008;2023-08-06T08:22:21;0.20;;;0.10;;
29006;SDS011;16104;48.642;9.008;2023-08-06T08:27:17;0.20;;;0.00;;
29006;SDS011;16104;48.642;9.008;2023-08-06T08:32:12;0.38;;;0.20;;
29006;SDS011;16104;48.642;9.008;2023-08-06T08:37:08;1.10;;;0.03;;
29006;SDS011;16104;48.642;9.008;2023-08-06T08:42:03;0.10;;;0.08;;
29006;SDS011;16104;48.642;9.008;2023-08-06T08:46:59;0.68;;;0.10;;
29006;SDS011;16104;48.642;9.008;2023-08-06T08:51:55;0.13;;;0.10;;
29006;SDS011;16104;48.642;9.008;2023-08-06T08:56:52;0.30;;;0.20;;
29006;SDS011;16104;48.642;9.008;2023-08-06T09:01:48;0.08;;;0.00;;
29006;SDS011;16104;48.642;9.008;2023-08-06T09:06:47;0.10;;;0.00;;
29006;SDS011;16104;48.642;9.008;2023-08-06T09:11:45;0.45;;;0.10;;
29006;SDS011;16104;48.642;9.008;2023-08-06T09:16:44;0.55;;;0.17;;
29006;SDS011;16104;48.642;9.008;2023-08-06T09:21:40;0.30;;;0.10;;
29006;SDS011;16104;48.642;9.008;2023-08-06T09:26:40;0.30;;;0.30;;
29006;SDS011;16104;48.642;9.008;2023-08-06T09:36:36;0.40;;;0.00;;
29006;SDS011;16104;48.642;9.008;2023-08-06T09:41:35;0.17;;;0.03;;
29006;SDS011;16104;48.642;9.008;2023-08-06T09:46:31;0.88;;;0.10;;
29006;SDS011;16104;48.642;9.008;2023-08-06T09:51:27;1.38;;;0.25;;
29006;SDS011;16104;48.642;9.008;2023-08-06T09:56:23;0.13;;;0.10;;
29006;SDS011;16104;48.642;9.008;2023-08-06T10:01:21;0.30;;;0.10;;
29006;SDS011;16104;48.642;9.008;2023-08-06T10:06:17;1.08;;;0.20;;
29006;SDS011;16104;48.642;9.008;2023-08-06T10:11:15;0.35;;;0.20;;
29006;SDS011;16104;48.642;9.008;2023-08-06T10:16:12;0.10;;;0.10;;
29006;SDS011;16104;48.642;9.008;2023-08-06T10:21:08;0.30;;;0.10;;
29006;SDS011;16104;48.642;9.008;2023-08-06T10:26:04;0.68;;;0.15;;
29006;SDS011;16104;48.642;9.008;2023-08-06T10:30:59;1.38;;;0.10;;
29006;SDS011;16104;48.642;9.008;2023-08-06T10:35:55;0.40;;;0.00;;
29006;SDS011;16104;48.642;9.008;2023-08-06T10:45:52;0.17;;;0.10;;
29006;SDS011;16104;48.642;9.008;2023-08-06T10:50:48;0.20;;;0.10;;
29006;SDS011;16104;48.642;9.008;2023-08-06T10:55:44;0.05;;;0.05;;
29006;SDS011;16104;48.642;9.008;2023-08-06T11:00:39;0.40;;;0.10;;
29006;SDS011;16104;48.642;9.008;2023-08-06T11:05:35;2.08;;;0.40;;
29006;SDS011;16104;48.642;9.008;2023-08-06T11:10:32;0.32;;;0.00;;
29006;SDS011;16104;48.642;9.008;2023-08-06T11:15:29;0.10;;;0.10;;
29006;SDS011;16104;48.642;9.008;2023-08-06T11:20:25;0.20;;;0.10;;
29006;SDS011;16104;48.642;9.008;2023-08-06T11:25:21;0.20;;;0.10;;
29006;SDS011;16104;48.642;9.008;2023-08-06T11:30:17;0.85;;;0.20;;
29006;SDS011;16104;48.642;9.008;2023-08-06T11:35:12;0.70;;;0.15;;
29006;SDS011;16104;48.642;9.008;2023-08-06T11:40:09;0.35;;;0.20;;
29006;SDS011;16104;48.642;9.008;2023-08-06T11:45:06;0.28;;;0.20;;
29006;SDS011;16104;48.642;9.008;2023-08-06T11:50:03;0.35;;;0.35;;
29006;SDS011;16104;48.642;9.008;2023-08-06T11:55:03;0.20;;;0.20;;
29006;SDS011;16104;48.642;9.008;2023-08-06T12:00:05;0.63;;;0.30;;
29006;SDS011;16104;48.642;9.008;2023-08-06T12:05:04;1.15;;;0.40;;
29006;SDS011;16104;48.642;9.008;2023-08-06T12:10:05;0.28;;;0.20;;
29006;SDS011;16104;48.642;9.008;2023-08-06T12:15:01;0.45;;;0.40;;
29006;SDS011;16104;48.642;9.008;2023-08-06T12:19:58;0.43;;;0.40;;
29006;SDS011;16104;48.642;9.008;2023-08-06T12:24:54;0.68;;;0.50;;
29006;SDS011;16104;48.642;9.008;2023-08-06T12:29:50;1.58;;;0.65;;
29006;SDS011;16104;48.642;9.008;2023-08-06T12:34:45;0.82;;;0.57;;
29006;SDS011;16104;48.642;9.008;2023-08-06T12:39:41;1.05;;;0.65;;
29006;SDS011;16104;48.642;9.008;2023-08-06T12:44:36;1.73;;;0.60;;
29006;SDS011;16104;48.642;9.008;2023-08-06T12:49:32;0.50;;;0.47;;
29006;SDS011;16104;48.642;9.008;2023-08-06T12:54:28;1.35;;;1.00;;
29006;SDS011;16104;48.642;9.008;2023-08-06T12:59:23;0.80;;;0.40;;
29006;SDS011;16104;48.642;9.008;2023-08-06T13:04:19;1.17;;;0.55;;
29006;SDS011;16104;48.642;9.008;2023-08-06T13:09:15;2.55;;;0.47;;
29006;SDS011;16104;48.642;9.008;2023-08-06T13:14:11;1.00;;;0.50;;
29006;SDS011;16104;48.642;9.008;2023-08-06T13:19:08;0.57;;;0.45;;
29006;SDS011;16104;48.642;9.008;2023-08-06T13:24:04;0.50;;;0.50;;
29006;SDS011;16104;48.642;9.008;2023-08-06T13:29:00;1.20;;;0.70;;
29006;SDS011;16104;48.642;9.008;2023-08-06T13:33:56;1.25;;;1.00;;
29006;SDS011;16104;48.642;9.008;2023-08-06T13:38:55;1.05;;;0.68;;
29006;SDS011;16104;48.642;9.008;2023-08-06T13:43:51;1.50;;;0.70;;
29006;SDS011;16104;48.642;9.008;2023-08-06T13:48:47;1.13;;;0.40;;
29006;SDS011;16104;48.642;9.008;2023-08-06T13:53:45;0.88;;;0.50;;
29006;SDS011;16104;48.642;9.008;2023-08-06T13:58:41;0.30;;;0.30;;
29006;SDS011;16104;48.642;9.008;2023-08-06T14:03:37;0.93;;;0.52;;
29006;SDS011;16104;48.642;9.008;2023-08-06T14:08:32;1.08;;;0.57;;
29006;SDS011;16104;48.642;9.008;2023-08-06T14:13:28;1.27;;;0.70;;
29006;SDS011;16104;48.642;9.008;2023-08-06T14:18:23;2.00;;;0.85;;
29006;SDS011;16104;48.642;9.008;2023-08-06T14:23:19;0.52;;;0.43;;
29006;SDS011;16104;48.642;9.008;2023-08-06T14:28:14;0.73;;;0.50;;
29006;SDS011;16104;48.642;9.008;2023-08-06T14:33:10;0.50;;;0.40;;
29006;SDS011;16104;48.642;9.008;2023-08-06T14:38:05;0.30;;;0.30;;
29006;SDS011;16104;48.642;9.008;2023-08-06T14:43:01;0.93;;;0.30;;
29006;SDS011;16104;48.642;9.008;2023-08-06T14:47:57;0.47;;;0.40;;
29006;SDS011;16104;48.642;9.008;2023-08-06T14:52:53;0.30;;;0.30;;
29006;SDS011;16104;48.642;9.008;2023-08-06T14:57:48;0.43;;;0.30;;
29006;SDS011;16104;48.642;9.008;2023-08-06T15:02:44;0.40;;;0.40;;
29006;SDS011;16104;48.642;9.008;2023-08-06T15:07:39;1.83;;;0.40;;
29006;SDS011;16104;48.642;9.008;2023-08-06T15:12:38;1.35;;;0.50;;
29006;SDS011;16104;48.642;9.008;2023-08-06T15:17:34;0.70;;;0.50;;
29006;SDS011;16104;48.642;9.008;2023-08-06T15:22:30;1.20;;;0.50;;
29006;SDS011;16104;48.642;9.008;2023-08-06T15:27:28;0.77;;;0.60;;
29006;SDS011;16104;48.642;9.008;2023-08-06T15:32:24;0.93;;;0.50;;
29006;SDS011;16104;48.642;9.008;2023-08-06T15:37:19;2.72;;;0.90;;
29006;SDS011;16104;48.642;9.008;2023-08-06T15:42:15;1.90;;;1.23;;
29006;SDS011;16104;48.642;9.008;2023-08-06T15:47:11;2.05;;;1.20;;
29006;SDS011;16104;48.642;9.008;2023-08-06T15:52:07;1.05;;;0.73;;
29006;SDS011;16104;48.642;9.008;2023-08-06T15:57:03;0.90;;;0.70;;
29006;SDS011;16104;48.642;9.008;2023-08-06T16:01:59;2.30;;;0.60;;
29006;SDS011;16104;48.642;9.008;2023-08-06T16:06:57;1.55;;;1.00;;
29006;SDS011;16104;48.642;9.008;2023-08-06T16:11:53;0.77;;;0.70;;
29006;SDS011;16104;48.642;9.008;2023-08-06T16:16:49;1.52;;;0.60;;
29006;SDS011;16104;48.642;9.008;2023-08-06T16:21:45;0.47;;;0.47;;
29006;SDS011;16104;48.642;9.008;2023-08-06T16:26:40;0.47;;;0.30;;
29006;SDS011;16104;48.642;9.008;2023-08-06T16:31:36;1.42;;;0.60;;
29006;SDS011;16104;48.642;9.008;2023-08-06T16:36:31;0.82;;;0.57;;
29006;SDS011;16104;48.642;9.008;2023-08-06T16:41:27;1.17;;;0.50;;
29006;SDS011;16104;48.642;9.008;2023-08-06T16:46:23;0.70;;;0.52;;
29006;SDS011;16104;48.642;9.008;2023-08-06T16:51:18;1.33;;;0.60;;
29006;SDS011;16104;48.642;9.008;2023-08-06T16:56:14;3.03;;;0.68;;
29006;SDS011;16104;48.642;9.008;2023-08-06T17:01:09;0.55;;;0.55;;
29006;SDS011;16104;48.642;9.008;2023-08-06T17:06:05;0.70;;;0.65;;
29006;SDS011;16104;48.642;9.008;2023-08-06T17:11:02;0.80;;;0.60;;
29006;SDS011;16104;48.642;9.008;2023-08-06T17:15:58;0.88;;;0.60;;
29006;SDS011;16104;48.642;9.008;2023-08-06T17:20:53;1.77;;;0.80;;
29006;SDS011;16104;48.642;9.008;2023-08-06T17:25:49;2.55;;;0.77;;
29006;SDS011;16104;48.642;9.008;2023-08-06T17:30:45;1.77;;;0.80;;
29006;SDS011;16104;48.642;9.008;2023-08-06T17:35:41;2.63;;;0.80;;
29006;SDS011;16104;48.642;9.008;2023-08-06T17:40:38;2.35;;;1.02;;
29006;SDS011;16104;48.642;9.008;2023-08-06T17:45:34;1.00;;;0.88;;
29006;SDS011;16104;48.642;9.008;2023-08-06T17:50:30;3.40;;;0.90;;
29006;SDS011;16104;48.642;9.008;2023-08-06T17:55:26;1.73;;;0.73;;
29006;SDS011;16104;48.642;9.008;2023-08-06T18:00:22;2.08;;;1.02;;
29006;SDS011;16104;48.642;9.008;2023-08-06T18:05:17;3.25;;;0.90;;
29006;SDS011;16104;48.642;9.008;2023-08-06T18:10:13;1.45;;;0.90;;
29006;SDS011;16104;48.642;9.008;2023-08-06T18:15:09;3.28;;;1.00;;
29006;SDS011;16104;48.642;9.008;2023-08-06T18:20:06;1.48;;;0.77;;
29006;SDS011;16104;48.642;9.008;2023-08-06T18:25:02;1.63;;;0.93;;
29006;SDS011;16104;48.642;9.008;2023-08-06T18:29:59;2.78;;;1.05;;
29006;SDS011;16104;48.642;9.008;2023-08-06T18:34:55;2.58;;;1.00;;
29006;SDS011;16104;48.642;9.008;2023-08-06T18:39:50;4.32;;;1.00;;
29006;SDS011;16104;48.642;9.008;2023-08-06T18:44:46;2.28;;;1.05;;
29006;SDS011;16104;48.642;9.008;2023-08-06T18:49:41;2.28;;;1.10;;
29006;SDS011;16104;48.642;9.008;2023-08-06T18:54:37;2.33;;;1.13;;
29006;SDS011;16104;48.642;9.008;2023-08-06T18:59:33;1.95;;;1.10;;
29006;SDS011;16104;48.642;9.008;2023-08-06T19:04:29;3.95;;;1.20;;
29006;SDS011;16104;48.642;9.008;2023-08-06T19:09:24;2.72;;;1.30;;
29006;SDS011;16104;48.642;9.008;2023-08-06T19:14:20;3.20;;;1.33;;
29006;SDS011;16104;48.642;9.008;2023-08-06T19:19:15;1.23;;;1.00;;
29006;SDS011;16104;48.642;9.008;2023-08-06T19:24:11;3.40;;;1.23;;
29006;SDS011;16104;48.642;9.008;2023-08-06T19:29:06;1.52;;;1.20;;
29006;SDS011;16104;48.642;9.008;2023-08-06T19:34:02;1.55;;;1.00;;
29006;SDS011;16104;48.642;9.008;2023-08-06T19:38:58;2.38;;;1.30;;
29006;SDS011;16104;48.642;9.008;2023-08-06T19:43:54;3.55;;;1.83;;
29006;SDS011;16104;48.642;9.008;2023-08-06T19:48:49;4.38;;;1.42;;
29006;SDS011;16104;48.642;9.008;2023-08-06T19:53:45;2.30;;;1.10;;
29006;SDS011;16104;48.642;9.008;2023-08-06T19:58:42;2.58;;;1.10;;
29006;SDS011;16104;48.642;9.008;2023-08-06T20:03:38;1.50;;;0.90;;
29006;SDS011;16104;48.642;9.008;2023-08-06T20:08:38;2.90;;;1.08;;
29006;SDS011;16104;48.642;9.008;2023-08-06T20:13:33;2.95;;;1.30;;
29006;SDS011;16104;48.642;9.008;2023-08-06T20:18:29;2.30;;;1.10;;
29006;SDS011;16104;48.642;9.008;2023-08-06T20:23:24;2.03;;;0.90;;
29006;SDS011;16104;48.642;9.008;2023-08-06T20:28:20;4.07;;;1.25;;
29006;SDS011;16104;48.642;9.008;2023-08-06T20:33:15;2.95;;;1.20;;
29006;SDS011;16104;48.642;9.008;2023-08-06T20:38:11;1.15;;;0.93;;
29006;SDS011;16104;48.642;9.008;2023-08-06T20:43:06;2.67;;;1.13;;
29006;SDS011;16104;48.642;9.008;2023-08-06T20:48:02;4.10;;;1.08;;
29006;SDS011;16104;48.642;9.008;2023-08-06T20:52:58;1.80;;;1.17;;
29006;SDS011;16104;48.642;9.008;2023-08-06T20:57:53;0.90;;;0.90;;
29006;SDS011;16104;48.642;9.008;2023-08-06T21:02:50;1.17;;;0.90;;
29006;SDS011;16104;48.642;9.008;2023-08-06T21:07:45;2.25;;;1.13;;
29006;SDS011;16104;48.642;9.008;2023-08-06T21:12:41;1.92;;;1.00;;
29006;SDS011;16104;48.642;9.008;2023-08-06T21:17:37;3.95;;;0.93;;
29006;SDS011;16104;48.642;9.008;2023-08-06T21:22:33;1.70;;;0.75;;
29006;SDS011;16104;48.642;9.008;2023-08-06T21:27:28;1.80;;;0.82;;
29006;SDS011;16104;48.642;9.008;2023-08-06T21:32:24;1.02;;;0.88;;
29006;SDS011;16104;48.642;9.008;2023-08-06T21:37:19;1.02;;;0.77;;
29006;SDS011;16104;48.642;9.008;2023-08-06T21:42:15;1.27;;;0.75;;
29006;SDS011;16104;48.642;9.008;2023-08-06T21:47:10;0.82;;;0.70;;
29006;SDS011;16104;48.642;9.008;2023-08-06T21:52:06;2.90;;;0.90;;
29006;SDS011;16104;48.642;9.008;2023-08-06T21:57:02;1.08;;;0.80;;
29006;SDS011;16104;48.642;9.008;2023-08-06T22:01:57;4.18;;;1.00;;
29006;SDS011;16104;48.642;9.008;2023-08-06T22:06:53;1.58;;;0.90;;
29006;SDS011;16104;48.642;9.008;2023-08-06T22:11:48;2.60;;;1.13;;
29006;SDS011;16104;48.642;9.008;2023-08-06T22:16:44;2.22;;;0.80;;
29006;SDS011;16104;48.642;9.008;2023-08-06T22:21:41;3.10;;;0.88;;
29006;SDS011;16104;48.642;9.008;2023-08-06T22:26:36;1.95;;;0.98;;
29006;SDS011;16104;48.642;9.008;2023-08-06T22:31:32;2.63;;;0.88;;
29006;SDS011;16104;48.642;9.008;2023-08-06T22:36:27;3.42;;;1.13;;
29006;SDS011;16104;48.642;9.008;2023-08-06T22:41:23;3.95;;;1.13;;
29006;SDS011;16104;48.642;9.008;2023-08-06T22:46:19;2.20;;;1.15;;
29006;SDS011;16104;48.642;9.008;2023-08-06T22:51:16;2.22;;;1.27;;
29006;SDS011;16104;48.642;9.008;2023-08-06T22:56:12;1.38;;;0.90;;
29006;SDS011;16104;48.642;9.008;2023-08-06T23:01:07;3.75;;;1.17;;
29006;SDS011;16104;48.642;9.008;2023-08-06T23:06:03;1.65;;;1.25;;
29006;SDS011;16104;48.642;9.008;2023-08-06T23:10:58;1.92;;;1.10;;
29006;SDS011;16104;48.642;9.008;2023-08-06T23:15:55;1.75;;;1.10;;
29006;SDS011;16104;48.642;9.008;2023-08-06T23:20:51;3.65;;;1.20;;
29006;SDS011;16104;48.642;9.008;2023-08-06T23:25:46;3.13;;;1.27;;
29006;SDS011;16104;48.642;9.008;2023-08-06T23:30:42;1.45;;;1.10;;
29006;SDS011;16104;48.642;9.008;2023-08-06T23:35:41;2.17;;;1.05;;
29006;SDS011;16104;48.642;9.008;2023-08-06T23:40:37;2.08;;;1.17;;
29006;SDS011;16104;48.642;9.008;2023-08-06T23:45:32;2.45;;;1.30;;
29006;SDS011;16104;48.642;9.008;2023-08-06T23:50:29;2.70;;;1.25;;
29006;SDS011;16104;48.642;9.008;2023-08-06T23:55:24;2.17;;;1.20;;
